< < Back
Terminal Aerodrome Forecast


Current Version              Previous Versions:   1  2  3  4  5  6  7  8  9  

Terminal Aerodrome Forecast

238
FTUS44 KOHX 222300
TAFCSV
TAF
KCSV 222339Z 2300/2324 03005KT P6SM SKC=



Latest METAR

041
SAUS70 KWBC 231056
MTRCSV
METAR KCSV 231053Z AUTO 03003KT 8SM CLR 03/01 A3020 RMK AO2 SLP229
T00330011


USA.gov is the U.S. government's official web portal to all federal, state and local government web resources and services.